Time;durP1;ratioP1;P1;durP2;ratioP2;P2;SDS_P1;SDS_P2;PMS_P1;PMS_P2;Temp;Humidity;BMP_temperature;BMP_pressure;BME280_temperature;BME280_humidity;BME280_pressure;Samples;Min_cycle;Max_cycle;Signal;HPM_P1;HPM_P2
2022/07/16 00:02:35;;;;;;;7.22;3.80;;;16.10;78.40;;;;;;5100322;28;20105;-68
2022/07/16 00:05:01;;;;;;;4.25;3.05;;;16.00;78.50;;;;;;5085479;28;20495;-67
2022/07/16 00:07:26;;;;;;;7.00;3.67;;;16.00;78.60;;;;;;5090193;28;20038;-67
2022/07/16 00:09:52;;;;;;;5.00;3.35;;;16.00;78.90;;;;;;5088751;28;20074;-68
2022/07/16 00:12:17;;;;;;;7.00;3.80;;;16.00;78.90;;;;;;5092157;28;20023;-69
2022/07/16 00:14:43;;;;;;;4.22;3.17;;;15.90;79.10;;;;;;5094798;28;20043;-69
2022/07/16 00:17:09;;;;;;;4.13;3.15;;;15.90;79.30;;;;;;5089777;28;20043;-69
2022/07/16 00:19:35;;;;;;;4.82;3.25;;;15.90;79.40;;;;;;5087066;28;20462;-69
2022/07/16 00:22:00;;;;;;;6.65;3.72;;;15.80;79.30;;;;;;5082259;28;20458;-69
2022/07/16 00:24:26;;;;;;;7.18;3.42;;;15.80;79.30;;;;;;5083561;28;20051;-69
2022/07/16 00:26:52;;;;;;;3.88;2.90;;;15.80;79.50;;;;;;5085620;28;20106;-68
2022/07/16 00:29:19;;;;;;;4.60;3.08;;;15.80;79.60;;;;;;5093202;28;20119;-68
2022/07/16 00:31:46;;;;;;;5.55;2.97;;;15.80;79.70;;;;;;5088476;28;20565;-69
2022/07/16 00:34:12;;;;;;;6.97;3.78;;;15.70;79.80;;;;;;5085838;28;20039;-68
2022/07/16 00:36:39;;;;;;;8.05;4.15;;;15.70;80.10;;;;;;5095210;28;20083;-68
2022/07/16 00:39:07;;;;;;;5.63;3.00;;;15.60;80.20;;;;;;5091278;28;20028;-68
2022/07/16 00:41:34;;;;;;;6.45;3.88;;;15.60;80.40;;;;;;5081592;28;20492;-70
2022/07/16 00:44:05;;;;;;;9.05;3.40;;;15.60;80.40;;;;;;5080449;28;20036;-68
2022/07/16 00:46:31;;;;;;;5.82;2.95;;;15.60;80.50;;;;;;5093463;28;20039;-68
2022/07/16 00:48:57;;;;;;;3.67;3.00;;;15.50;80.60;;;;;;5094223;28;20024;-69
2022/07/16 00:51:25;;;;;;;3.95;2.90;;;15.50;80.70;;;;;;5077236;28;20025;-68
2022/07/16 00:53:51;;;;;;;4.35;3.22;;;15.40;80.60;;;;;;5087708;28;20032;-68
2022/07/16 00:56:17;;;;;;;6.80;3.10;;;15.40;80.90;;;;;;5093906;28;20071;-68
2022/07/16 00:58:45;;;;;;;4.50;2.80;;;15.40;81.00;;;;;;5105801;28;20525;-68
2022/07/16 01:01:12;;;;;;;4.70;2.92;;;15.40;81.40;;;;;;5083660;28;20047;-70
2022/07/16 01:03:39;;;;;;;8.30;3.00;;;15.30;81.70;;;;;;5104364;28;20038;-68
2022/07/16 01:06:06;;;;;;;6.30;2.78;;;;;;;;;;5086372;28;20020;-70
2022/07/16 01:08:35;;;;;;;5.82;2.97;;;;;;;;;;5095030;28;20028;-69
2022/07/16 01:11:03;;;;;;;5.63;3.10;;;;;;;;;;5094665;28;20385;-68
2022/07/16 01:13:29;;;;;;;9.70;3.20;;;;;;;;;;5097803;28;20089;-68
2022/07/16 01:15:55;;;;;;;7.15;3.20;;;;;;;;;;5095623;28;20455;-68
2022/07/16 01:18:21;;;;;;;5.90;3.05;;;;;;;;;;5100194;28;20027;-68
2022/07/16 01:20:47;;;;;;;6.72;3.08;;;;;;;;;;5095698;28;20077;-68
2022/07/16 01:23:19;;;;;;;9.27;3.13;;;;;;;;;;5092352;28;20024;-70
2022/07/16 01:25:45;;;;;;;3.47;2.60;;;;;;;;;;5089366;28;20081;-68
2022/07/16 01:28:11;;;;;;;2.95;2.65;;;;;;;;;;5085041;28;20036;-68
2022/07/16 01:30:37;;;;;;;7.18;3.47;;;;;;;;;;5104387;28;20026;-68
2022/07/16 01:33:23;;;;;;;4.60;3.15;;;;;;;;;;5097143;28;20027;-68
2022/07/16 01:35:50;;;;;;;3.95;2.67;;;;;;;;;;5095434;28;20127;-68
2022/07/16 01:38:16;;;;;;;6.63;3.28;;;;;;;;;;5092919;28;20104;-68
2022/07/16 01:40:42;;;;;;;5.43;3.22;;;;;;;;;;5095255;28;20024;-68
2022/07/16 01:43:14;;;;;;;5.45;3.25;;;;;;;;;;5089875;28;20548;-69
2022/07/16 01:45:40;;;;;;;7.68;3.17;;;;;;;;;;5090977;28;20020;-68
2022/07/16 01:48:06;;;;;;;7.72;3.20;;;;;;;;;;5087679;28;20063;-68
2022/07/16 01:50:32;;;;;;;4.72;3.13;;;;;;;;;;5104749;28;20054;-69
2022/07/16 01:52:58;;;;;;;5.97;2.97;;;;;;;;;;5095310;28;20063;-70
2022/07/16 01:55:24;;;;;;;6.03;3.22;;;;;;;;;;5091112;28;20543;-70
2022/07/16 01:57:50;;;;;;;6.38;3.28;;;;;;;;;;5095625;28;20028;-69
2022/07/16 02:00:16;;;;;;;6.47;3.83;;;15.00;82.50;;;;;;5102746;28;20816;-68
2022/07/16 02:02:42;;;;;;;3.33;2.97;;;14.90;83.20;;;;;;5095932;28;20032;-69
2022/07/16 02:05:07;;;;;;;7.03;3.17;;;14.80;83.50;;;;;;5095993;28;20107;-69
2022/07/16 02:07:33;;;;;;;4.93;3.10;;;14.80;83.70;;;;;;5094782;28;20037;-69
2022/07/16 02:09:59;;;;;;;3.55;3.17;;;14.80;83.80;;;;;;5088464;28;20460;-68
2022/07/16 02:12:24;;;;;;;5.78;3.03;;;14.70;83.90;;;;;;5090681;28;20059;-69
2022/07/16 02:14:50;;;;;;;6.90;3.33;;;14.70;84.20;;;;;;5099028;28;20041;-68
2022/07/16 02:17:15;;;;;;;4.05;3.10;;;14.70;84.30;;;;;;5099698;28;20041;-68
2022/07/16 02:19:41;;;;;;;4.45;3.00;;;14.70;84.50;;;;;;5091344;28;20031;-69
2022/07/16 02:22:09;;;;;;;4.25;2.53;;;14.60;84.50;;;;;;5079926;28;20055;-69
2022/07/16 02:24:34;;;;;;;7.25;3.25;;;14.60;84.70;;;;;;5098651;28;20485;-68
2022/07/16 02:27:00;;;;;;;4.78;3.22;;;14.60;84.80;;;;;;5093441;28;20064;-68
2022/07/16 02:29:26;;;;;;;6.43;2.90;;;14.60;84.90;;;;;;5088768;28;20103;-68
2022/07/16 02:31:51;;;;;;;5.15;2.67;;;14.50;84.90;;;;;;5085015;28;20043;-68
2022/07/16 02:34:17;;;;;;;4.63;2.88;;;14.50;84.90;;;;;;5097477;28;20032;-68
2022/07/16 02:36:42;;;;;;;4.03;2.50;;;14.50;84.90;;;;;;5092968;28;20038;-69
2022/07/16 02:39:08;;;;;;;4.88;3.45;;;14.50;85.10;;;;;;5082840;28;20035;-70
2022/07/16 02:41:34;;;;;;;4.38;2.95;;;14.50;85.30;;;;;;5096742;28;20032;-69
2022/07/16 02:43:59;;;;;;;5.00;2.92;;;14.40;85.40;;;;;;5092931;28;20078;-69
2022/07/16 02:46:25;;;;;;;3.05;2.70;;;14.40;85.40;;;;;;5090242;28;20108;-69
2022/07/16 02:48:51;;;;;;;3.90;3.30;;;14.40;85.60;;;;;;5088033;28;20140;-69
2022/07/16 02:51:16;;;;;;;8.75;3.40;;;14.40;85.70;;;;;;5075977;28;20024;-69
2022/07/16 02:53:43;;;;;;;6.22;2.65;;;14.30;85.80;;;;;;5089544;28;20024;-69
2022/07/16 02:56:08;;;;;;;4.45;2.40;;;14.30;85.80;;;;;;5093855;28;20028;-69
2022/07/16 02:58:34;;;;;;;3.95;2.95;;;14.30;86.00;;;;;;5093644;28;20024;-69
2022/07/16 03:01:00;;;;;;;3.63;2.60;;;14.30;86.10;;;;;;5083772;28;20036;-69
2022/07/16 03:03:25;;;;;;;4.18;2.80;;;14.20;86.20;;;;;;5100589;28;20078;-70
2022/07/16 03:05:51;;;;;;;7.55;2.92;;;14.20;86.50;;;;;;5086908;28;20081;-69
2022/07/16 03:08:17;;;;;;;4.28;2.60;;;14.20;86.80;;;;;;5076298;28;20028;-69
2022/07/16 03:10:42;;;;;;;5.38;3.30;;;14.10;87.10;;;;;;5089529;28;20518;-69
2022/07/16 03:13:08;;;;;;;5.55;3.08;;;14.10;87.30;;;;;;5100063;28;20049;-67
2022/07/16 03:15:33;;;;;;;6.88;2.83;;;14.00;87.40;;;;;;5091282;28;20044;-68
2022/07/16 03:18:00;;;;;;;4.18;2.60;;;14.10;87.40;;;;;;5082733;28;20036;-68
2022/07/16 03:20:25;;;;;;;4.82;2.80;;;14.10;87.30;;;;;;5103621;28;20026;-68
2022/07/16 03:22:51;;;;;;;5.82;2.97;;;14.10;87.30;;;;;;5100985;28;20376;-69
2022/07/16 03:25:17;;;;;;;6.50;2.58;;;14.00;87.30;;;;;;5094148;28;20036;-69
2022/07/16 03:27:43;;;;;;;4.80;2.83;;;14.00;87.30;;;;;;5084015;28;20426;-69
2022/07/16 03:30:10;;;;;;;5.30;3.25;;;14.00;87.30;;;;;;5086728;28;20025;-69
2022/07/16 03:32:36;;;;;;;6.00;2.90;;;14.00;87.50;;;;;;5089332;28;20115;-69
2022/07/16 03:35:07;;;;;;;4.38;2.72;;;14.00;87.70;;;;;;5087039;28;20111;-69
2022/07/16 03:37:33;;;;;;;11.43;3.10;;;14.00;87.70;;;;;;5097306;28;20043;-68
2022/07/16 03:39:59;;;;;;;6.88;2.78;;;13.90;87.90;;;;;;5096868;28;20025;-68
2022/07/16 03:42:25;;;;;;;4.45;2.40;;;13.90;87.80;;;;;;5099166;28;20027;-68
2022/07/16 03:44:50;;;;;;;3.42;2.55;;;13.90;87.60;;;;;;5098000;28;20685;-68
2022/07/16 03:47:16;;;;;;;3.83;2.45;;;13.90;87.70;;;;;;5076045;28;20100;-68
2022/07/16 03:49:41;;;;;;;4.97;2.42;;;13.90;87.80;;;;;;5094686;28;20033;-69
2022/07/16 03:52:07;;;;;;;2.50;2.30;;;13.90;88.00;;;;;;5094353;28;20028;-68
2022/07/16 03:54:33;;;;;;;5.20;2.60;;;13.80;88.50;;;;;;5086134;28;20372;-68
2022/07/16 03:56:58;;;;;;;3.95;2.50;;;13.90;89.00;;;;;;5096227;28;20031;-69
2022/07/16 03:59:24;;;;;;;6.03;2.47;;;13.80;89.50;;;;;;5095941;28;20473;-69
2022/07/16 04:01:50;;;;;;;3.45;2.50;;;13.80;89.00;;;;;;5071574;28;20172;-69
2022/07/16 04:04:15;;;;;;;3.80;2.30;;;13.70;89.20;;;;;;5083886;28;20035;-68
2022/07/16 04:06:41;;;;;;;3.13;2.28;;;13.70;89.50;;;;;;5088579;28;20400;-68
2022/07/16 04:09:07;;;;;;;7.80;3.05;;;13.70;89.50;;;;;;5073718;28;20032;-68
2022/07/16 04:11:32;;;;;;;2.72;2.10;;;13.70;89.80;;;;;;5085500;28;20035;-68
2022/07/16 04:13:58;;;;;;;3.83;2.13;;;13.70;90.20;;;;;;5079378;28;20041;-68
2022/07/16 04:16:23;;;;;;;2.83;2.60;;;13.70;90.00;;;;;;5093598;28;20048;-68
2022/07/16 04:18:49;;;;;;;5.97;3.05;;;13.70;90.00;;;;;;5090960;28;20050;-67
2022/07/16 04:21:15;;;;;;;4.63;2.60;;;13.70;90.00;;;;;;5079371;28;20286;-68
2022/07/16 04:23:40;;;;;;;5.60;2.60;;;13.80;90.00;;;;;;5078695;28;20036;-69
2022/07/16 04:26:06;;;;;;;3.28;2.67;;;13.90;89.90;;;;;;5080125;28;20112;-68
2022/07/16 04:28:32;;;;;;;3.88;2.80;;;13.90;89.70;;;;;;5085507;28;20487;-67
2022/07/16 04:30:57;;;;;;;3.30;2.05;;;13.90;89.50;;;;;;5087448;28;20043;-69
2022/07/16 04:33:23;;;;;;;5.57;2.85;;;13.90;89.40;;;;;;5093248;28;20048;-69
2022/07/16 04:35:49;;;;;;;3.53;2.60;;;14.00;89.40;;;;;;5088712;28;20024;-68
2022/07/16 04:38:17;;;;;;;2.75;2.30;;;14.00;89.30;;;;;;5082615;28;20077;-68
2022/07/16 04:40:42;;;;;;;6.40;2.60;;;14.10;89.30;;;;;;5088083;28;20048;-76
2022/07/16 04:43:08;;;;;;;3.85;2.35;;;14.20;89.40;;;;;;5097113;28;20078;-68
2022/07/16 04:45:34;;;;;;;2.60;2.40;;;14.30;89.40;;;;;;5081210;28;20024;-69
2022/07/16 04:47:59;;;;;;;2.85;2.30;;;14.30;89.40;;;;;;5094875;28;20477;-68
2022/07/16 04:50:25;;;;;;;5.25;2.42;;;14.40;89.30;;;;;;5095370;28;20025;-68
2022/07/16 04:52:50;;;;;;;4.72;2.63;;;14.50;89.30;;;;;;5093347;28;20114;-68
2022/07/16 04:55:16;;;;;;;5.28;2.67;;;14.60;89.20;;;;;;5080004;28;21079;-68
2022/07/16 04:57:42;;;;;;;3.65;3.25;;;14.60;89.30;;;;;;5093997;28;20032;-68
2022/07/16 05:00:08;;;;;;;4.57;3.33;;;14.70;89.40;;;;;;5084591;28;20031;-68
2022/07/16 05:05:20;;;;;;;4.75;3.15;;;15.00;89.60;;;;;;5088312;28;20036;-68
2022/07/16 05:07:49;;;;;;;7.82;3.80;;;15.10;89.50;;;;;;5092697;28;20024;-68
2022/07/16 05:10:15;;;;;;;6.10;4.03;;;15.20;89.60;;;;;;5083346;28;20028;-67
2022/07/16 05:12:41;;;;;;;7.90;4.28;;;15.30;90.00;;;;;;5082217;28;20032;-68
2022/07/16 05:15:08;;;;;;;8.10;4.40;;;15.40;90.20;;;;;;5082699;28;20480;-68
2022/07/16 05:17:34;;;;;;;6.03;4.40;;;15.50;90.20;;;;;;5095629;28;20156;-68
2022/07/16 05:19:59;;;;;;;5.78;4.10;;;15.50;90.30;;;;;;5089159;28;20106;-68
2022/07/16 05:22:25;;;;;;;5.85;4.25;;;15.60;90.30;;;;;;5091640;28;20032;-68
2022/07/16 05:24:50;;;;;;;9.10;4.38;;;15.70;90.30;;;;;;5079965;28;20521;-69
2022/07/16 05:27:16;;;;;;;8.60;4.70;;;15.80;90.20;;;;;;5082704;28;20150;-69
2022/07/16 05:29:42;;;;;;;6.10;4.28;;;15.80;90.30;;;;;;5089728;28;20399;-68
2022/07/16 05:32:07;;;;;;;6.03;4.10;;;15.80;90.20;;;;;;5089463;28;20028;-68
2022/07/16 05:34:33;;;;;;;6.60;3.88;;;16.00;90.20;;;;;;5109011;28;20030;-68
2022/07/16 05:36:58;;;;;;;4.70;3.63;;;16.00;90.10;;;;;;5090329;28;20039;-69
2022/07/16 05:39:24;;;;;;;6.95;4.43;;;16.10;89.80;;;;;;5095745;28;20021;-68
2022/07/16 05:41:50;;;;;;;5.25;3.67;;;16.20;89.40;;;;;;5099161;28;20361;-68
2022/07/16 05:44:16;;;;;;;9.27;4.43;;;16.30;88.50;;;;;;5089727;28;20103;-68
2022/07/16 05:46:42;;;;;;;9.02;4.28;;;16.40;87.80;;;;;;5084159;28;20032;-68
2022/07/16 05:49:08;;;;;;;9.05;5.32;;;16.50;87.90;;;;;;5089244;28;20024;-69
2022/07/16 05:51:33;;;;;;;6.10;4.60;;;16.70;88.10;;;;;;5092660;28;20032;-67
2022/07/16 05:53:59;;;;;;;7.97;4.55;;;16.80;87.90;;;;;;5087490;28;20439;-68
2022/07/16 05:56:24;;;;;;;8.50;5.13;;;16.90;87.40;;;;;;5082208;28;20037;-68
2022/07/16 05:58:50;;;;;;;9.07;4.60;;;17.00;87.50;;;;;;5104405;28;20380;-68
2022/07/16 06:01:16;;;;;;;7.78;4.70;;;17.00;87.30;;;;;;5090281;28;20039;-68
2022/07/16 06:03:41;;;;;;;7.60;4.40;;;17.10;87.00;;;;;;5095683;28;20440;-68
2022/07/16 06:06:07;;;;;;;7.68;4.28;;;17.20;86.70;;;;;;5087496;28;20036;-68
2022/07/16 06:08:33;;;;;;;6.03;3.95;;;17.20;86.40;;;;;;5086559;28;20024;-68
2022/07/16 06:10:59;;;;;;;8.27;4.70;;;17.30;85.90;;;;;;5083718;28;20654;-69
2022/07/16 06:13:25;;;;;;;7.55;4.30;;;17.40;84.80;;;;;;5078778;28;20029;-68
2022/07/16 06:15:50;;;;;;;9.15;4.30;;;17.50;84.20;;;;;;5091885;28;20474;-69
2022/07/16 06:18:16;;;;;;;4.47;4.05;;;17.60;83.10;;;;;;5085577;28;20043;-68
2022/07/16 06:20:42;;;;;;;11.65;4.18;;;17.70;82.70;;;;;;5101376;28;20038;-68
2022/07/16 06:23:07;;;;;;;5.65;4.32;;;17.80;82.40;;;;;;5097222;28;20097;-68
2022/07/16 06:25:33;;;;;;;8.93;4.75;;;17.80;82.50;;;;;;5092828;28;20031;-68
2022/07/16 06:27:58;;;;;;;5.68;4.45;;;17.90;81.70;;;;;;5086976;28;20565;-68
2022/07/16 06:30:24;;;;;;;4.55;3.92;;;18.00;81.80;;;;;;5089959;28;20032;-68
2022/07/16 06:32:50;;;;;;;8.20;5.07;;;18.10;81.30;;;;;;5092761;28;20381;-68
2022/07/16 06:35:16;;;;;;;7.13;3.65;;;18.20;81.00;;;;;;5089150;28;20113;-68
2022/07/16 06:37:41;;;;;;;6.40;3.75;;;18.30;79.90;;;;;;5084924;28;20051;-68
2022/07/16 06:40:08;;;;;;;5.75;4.13;;;18.40;79.70;;;;;;5095087;28;20025;-68
2022/07/16 06:42:34;;;;;;;6.05;4.07;;;18.40;79.10;;;;;;5091314;28;20024;-67
2022/07/16 06:45:00;;;;;;;7.80;4.28;;;18.50;78.90;;;;;;5082295;28;20035;-73
2022/07/16 06:47:26;;;;;;;6.07;4.35;;;18.50;78.50;;;;;;5087073;28;20033;-72
2022/07/16 06:49:52;;;;;;;5.85;3.90;;;18.70;78.00;;;;;;5087080;28;20039;-74
2022/07/16 06:52:18;;;;;;;8.55;3.97;;;18.70;78.30;;;;;;5082141;28;20020;-69
2022/07/16 06:54:44;;;;;;;9.30;3.97;;;18.80;77.70;;;;;;5085257;28;20388;-71
2022/07/16 06:57:10;;;;;;;10.52;4.05;;;18.90;77.40;;;;;;5088340;28;20047;-71
2022/07/16 06:59:35;;;;;;;9.10;4.05;;;18.90;77.20;;;;;;5098826;28;20027;-71
2022/07/16 07:02:01;;;;;;;9.52;3.95;;;19.20;76.90;;;;;;5094268;28;20036;-72
2022/07/16 07:04:26;;;;;;;12.60;4.18;;;19.30;76.20;;;;;;5102556;28;20144;-71
2022/07/16 07:06:52;;;;;;;8.10;4.18;;;19.20;76.60;;;;;;5093346;28;20195;-70
2022/07/16 07:09:18;;;;;;;5.57;3.80;;;19.30;76.00;;;;;;5084081;28;20028;-69
2022/07/16 07:11:43;;;;;;;4.78;3.47;;;19.30;76.20;;;;;;5088192;28;20027;-70
2022/07/16 07:14:10;;;;;;;8.50;4.20;;;19.30;76.30;;;;;;5091571;28;20059;-71
2022/07/16 07:16:35;;;;;;;7.82;4.63;;;19.50;76.00;;;;;;5088260;28;20036;-72
2022/07/16 07:19:01;;;;;;;6.10;4.00;;;19.60;75.90;;;;;;5083414;28;20035;-67
2022/07/16 07:21:27;;;;;;;8.68;4.07;;;19.70;75.30;;;;;;5077610;28;20033;-71
2022/07/16 07:23:53;;;;;;;6.53;4.20;;;19.90;75.30;;;;;;5083532;28;20074;-71
2022/07/16 07:26:19;;;;;;;4.78;3.45;;;20.20;73.70;;;;;;5077931;28;20027;-70
2022/07/16 07:28:45;;;;;;;7.13;3.50;;;20.30;73.80;;;;;;5086828;28;20015;-70
2022/07/16 07:31:10;;;;;;;6.28;3.50;;;20.30;73.40;;;;;;5080215;28;20029;-72
2022/07/16 07:33:37;;;;;;;7.13;3.75;;;20.40;73.30;;;;;;5085392;28;20031;-72
2022/07/16 07:36:03;;;;;;;6.00;3.67;;;20.60;72.50;;;;;;5080465;28;20433;-71
2022/07/16 07:38:28;;;;;;;7.10;3.70;;;20.80;72.00;;;;;;5083891;28;20095;-71
2022/07/16 07:40:54;;;;;;;5.03;3.60;;;20.80;70.80;;;;;;5075834;28;20115;-72
2022/07/16 07:43:20;;;;;;;6.20;3.67;;;20.80;71.00;;;;;;5076523;28;20509;-71
2022/07/16 07:45:46;;;;;;;5.35;3.28;;;20.90;70.20;;;;;;5080301;28;20020;-75
2022/07/16 07:48:11;;;;;;;6.45;3.13;;;20.90;70.30;;;;;;5078314;28;20047;-71
2022/07/16 07:50:37;;;;;;;5.82;3.60;;;21.00;69.50;;;;;;5082431;28;20020;-70
2022/07/16 07:53:03;;;;;;;7.95;4.13;;;20.90;69.60;;;;;;5077742;28;20029;-70
2022/07/16 07:55:30;;;;;;;6.38;3.17;;;21.00;70.00;;;;;;5078082;28;20069;-71
2022/07/16 07:57:56;;;;;;;8.23;4.18;;;21.10;70.00;;;;;;5072935;28;20048;-71
2022/07/16 08:00:22;;;;;;;9.80;3.80;;;21.20;69.50;;;;;;5076810;28;20102;-70
2022/07/16 08:02:48;;;;;;;10.07;3.50;;;21.30;69.50;;;;;;5077716;28;20111;-70
2022/07/16 08:05:15;;;;;;;11.63;3.70;;;21.40;68.60;;;;;;5084111;28;20103;-70
2022/07/16 08:07:42;;;;;;;7.05;3.20;;;21.40;70.30;;;;;;5080646;28;20393;-71
2022/07/16 08:10:08;;;;;;;9.00;3.30;;;21.50;70.10;;;;;;5087761;28;20048;-71
2022/07/16 08:12:35;;;;;;;5.18;3.05;;;21.60;68.60;;;;;;5083775;28;20078;-71
2022/07/16 08:15:00;;;;;;;8.35;3.03;;;21.70;68.60;;;;;;5068834;28;20044;-70
2022/07/16 08:17:26;;;;;;;4.78;3.20;;;21.90;67.00;;;;;;5075106;28;20433;-71
2022/07/16 08:19:52;;;;;;;6.80;3.47;;;21.80;67.00;;;;;;5087825;28;20482;-69
2022/07/16 08:22:17;;;;;;;3.20;1.92;;;21.80;67.80;;;;;;5085237;28;20131;-70
2022/07/16 08:27:27;;;;;;;3.70;1.70;;;21.70;63.60;;;;;;5082907;28;20515;-70
2022/07/16 08:29:53;;;;;;;5.57;2.05;;;21.60;63.50;;;;;;5092215;28;20043;-70
2022/07/16 08:32:19;;;;;;;4.07;2.13;;;21.60;64.30;;;;;;5085562;28;20091;-72
2022/07/16 08:34:44;;;;;;;4.30;1.90;;;21.80;63.50;;;;;;5091986;28;20054;-71
2022/07/16 08:37:11;;;;;;;3.45;2.15;;;22.00;63.10;;;;;;5081208;28;20038;-71
2022/07/16 08:39:42;;;;;;;4.57;1.70;;;22.10;62.90;;;;;;5089428;28;20085;-71
2022/07/16 08:42:10;;;;;;;2.58;1.70;;;22.30;61.40;;;;;;5091951;28;20028;-70
2022/07/16 08:44:39;;;;;;;5.13;1.70;;;22.20;61.70;;;;;;5087372;28;20032;-70
2022/07/16 08:47:06;;;;;;;3.65;1.90;;;22.20;62.30;;;;;;5082294;28;20028;-71
2022/07/16 08:49:32;;;;;;;4.15;1.70;;;22.30;61.10;;;;;;5093551;28;20027;-71
2022/07/16 08:52:00;;;;;;;5.80;1.63;;;22.40;62.00;;;;;;5092068;28;20458;-69
2022/07/16 08:54:29;;;;;;;5.53;1.77;;;22.50;60.30;;;;;;5094836;28;20015;-70
2022/07/16 08:56:55;;;;;;;1.92;1.50;;;22.60;60.10;;;;;;5094722;28;20046;-70
2022/07/16 08:59:21;;;;;;;3.33;1.48;;;22.60;60.60;;;;;;5085153;28;20120;-71
2022/07/16 09:01:47;;;;;;;2.47;1.63;;;22.70;60.00;;;;;;5088834;28;20023;-70
2022/07/16 09:04:13;;;;;;;2.90;1.63;;;22.80;60.20;;;;;;5083752;28;20028;-70
2022/07/16 09:06:39;;;;;;;3.33;1.60;;;22.90;60.50;;;;;;5093998;28;20035;-70
2022/07/16 09:09:05;;;;;;;7.47;1.90;;;23.20;58.20;;;;;;5093901;28;20115;-70
2022/07/16 09:11:33;;;;;;;8.35;1.88;;;23.20;59.40;;;;;;5078947;28;20059;-70
2022/07/16 09:14:04;;;;;;;5.45;2.10;;;23.20;58.50;;;;;;5091544;28;20070;-70
2022/07/16 09:16:35;;;;;;;4.88;1.75;;;23.30;58.10;;;;;;5100353;28;20039;-70
2022/07/16 09:19:06;;;;;;;2.33;1.73;;;23.20;58.40;;;;;;5089126;28;20091;-71
2022/07/16 09:21:32;;;;;;;2.17;1.58;;;23.20;58.10;;;;;;5090429;28;20024;-69
2022/07/16 09:23:58;;;;;;;4.25;1.70;;;23.00;58.50;;;;;;5091188;28;20136;-75
2022/07/16 09:26:26;;;;;;;4.10;2.05;;;22.80;58.40;;;;;;5097836;28;20102;-77
2022/07/16 09:28:52;;;;;;;4.68;1.25;;;22.90;58.60;;;;;;5093617;28;20027;-79
2022/07/16 09:31:35;;;;;;;4.28;1.35;;;23.00;58.40;;;;;;5094338;28;20039;-82
2022/07/16 09:34:14;;;;;;;3.78;1.77;;;23.20;58.90;;;;;;5076598;28;20033;-78
2022/07/16 09:37:04;;;;;;;1.63;1.20;;;23.50;57.70;;;;;;5092409;28;20141;-80
2022/07/16 09:39:31;;;;;;;2.85;1.48;;;23.60;57.70;;;;;;5093234;28;20389;-81
2022/07/16 09:41:57;;;;;;;2.33;1.30;;;23.80;57.00;;;;;;5102422;28;20033;-83
2022/07/16 09:44:26;;;;;;;2.55;1.80;;;23.80;56.70;;;;;;5102674;28;20030;-83
2022/07/16 09:46:59;;;;;;;1.95;1.60;;;23.80;57.10;;;;;;5104599;28;20039;-72
2022/07/16 09:49:26;;;;;;;5.38;1.75;;;23.80;58.00;;;;;;5091452;28;20020;-73
2022/07/16 09:51:53;;;;;;;4.10;1.55;;;24.00;57.20;;;;;;5099239;28;20065;-72
2022/07/16 09:54:33;;;;;;;4.45;1.95;;;24.00;56.90;;;;;;5097738;28;20066;-72
2022/07/16 09:57:08;;;;;;;2.63;1.40;;;23.90;56.50;;;;;;5097446;28;20032;-79
2022/07/16 09:59:35;;;;;;;5.43;1.70;;;23.90;57.00;;;;;;5097760;28;20097;-86
2022/07/16 10:02:04;;;;;;;3.38;1.50;;;24.00;56.90;;;;;;5077560;28;20025;-79
2022/07/16 10:04:30;;;;;;;6.70;2.00;;;24.10;56.70;;;;;;5088751;28;20023;-76
2022/07/16 10:06:57;;;;;;;3.92;1.50;;;24.40;57.00;;;;;;5095021;28;20121;-80
2022/07/16 10:09:24;;;;;;;2.75;1.50;;;24.40;56.00;;;;;;5098920;27;20067;-82
2022/07/16 10:11:52;;;;;;;5.57;1.77;;;24.40;56.10;;;;;;5080628;28;20028;-79
2022/07/16 10:14:18;;;;;;;6.22;1.75;;;24.20;55.90;;;;;;5085400;28;20561;-81
2022/07/16 10:16:45;;;;;;;3.97;1.70;;;24.10;57.00;;;;;;5096085;28;20468;-82
2022/07/16 10:19:12;;;;;;;5.00;1.50;;;24.10;56.90;;;;;;5099434;27;20129;-80
2022/07/16 10:21:38;;;;;;;3.42;1.42;;;24.20;55.90;;;;;;5098801;28;20039;-80
2022/07/16 10:24:06;;;;;;;3.22;1.90;;;24.30;56.40;;;;;;5097891;28;20031;-80
2022/07/16 10:26:34;;;;;;;1.80;1.30;;;24.50;56.00;;;;;;5094370;28;20032;-80
2022/07/16 10:29:00;;;;;;;1.58;1.48;;;24.70;55.70;;;;;;5095820;28;20030;-76
2022/07/16 10:34:35;;;;;;;6.60;1.98;;;25.10;54.50;;;;;;5086607;28;20080;-80
2022/07/16 10:37:02;;;;;;;6.50;2.13;;;25.10;54.00;;;;;;5094869;28;20044;-78
2022/07/16 10:39:28;;;;;;;3.38;1.70;;;25.10;53.80;;;;;;5098049;28;20456;-80
2022/07/16 10:41:59;;;;;;;5.65;1.80;;;25.00;54.50;;;;;;5095007;28;20036;-79
2022/07/16 10:44:45;;;;;;;5.35;1.67;;;25.10;54.00;;;;;;5096868;28;20051;-81
2022/07/16 10:47:11;;;;;;;3.63;1.45;;;25.00;53.20;;;;;;5092226;28;20443;-79
2022/07/16 10:49:37;;;;;;;2.60;1.48;;;25.00;53.90;;;;;;5098339;28;20058;-80
2022/07/16 10:52:10;;;;;;;2.90;1.42;;;25.10;54.40;;;;;;5090636;28;20025;-79
2022/07/16 10:54:40;;;;;;;4.28;1.42;;;25.20;54.10;;;;;;5100545;28;20028;-81
2022/07/16 10:57:12;;;;;;;;;;;25.20;53.40;;;;;;5090315;28;20039;-80
2022/07/16 10:59:40;;;;;;;4.43;1.60;;;25.30;54.40;;;;;;5096960;28;19908;-80
2022/07/16 11:02:08;;;;;;;2.78;1.67;;;25.40;53.00;;;;;;5097963;28;20094;-81
2022/07/16 11:04:40;;;;;;;3.83;1.48;;;25.50;52.90;;;;;;5099964;28;20092;-79
2022/07/16 11:07:12;;;;;;;3.15;1.50;;;25.50;53.80;;;;;;5091759;28;20043;-81
2022/07/16 11:09:40;;;;;;;3.67;1.90;;;25.50;52.50;;;;;;5097212;28;20031;-82
2022/07/16 11:12:29;;;;;;;3.55;1.60;;;25.50;52.80;;;;;;5101683;28;20080;-80
2022/07/16 11:14:57;;;;;;;9.23;1.80;;;25.70;53.30;;;;;;5101582;28;20071;-81
2022/07/16 11:17:25;;;;;;;4.18;1.20;;;25.80;52.60;;;;;;5086106;28;20041;-81
2022/07/16 11:19:55;;;;;;;4.20;1.50;;;25.80;52.00;;;;;;5094179;28;20027;-81
2022/07/16 11:22:29;;;;;;;2.97;1.42;;;25.80;51.90;;;;;;5092720;28;20332;-80
2022/07/16 11:24:58;;;;;;;6.88;1.05;;;25.70;52.10;;;;;;5088585;28;20023;-81
2022/07/16 11:27:36;;;;;;;2.80;1.30;;;25.80;51.70;;;;;;5096037;28;20025;-80
2022/07/16 11:30:05;;;;;;;2.45;1.40;;;25.90;52.20;;;;;;5099455;28;20035;-77
2022/07/16 11:32:31;;;;;;;4.40;1.60;;;25.90;51.60;;;;;;5101029;28;20024;-80
2022/07/16 11:35:04;;;;;;;5.68;1.20;;;25.80;52.60;;;;;;5099445;28;20027;-79
2022/07/16 11:37:30;;;;;;;2.15;1.40;;;25.90;52.80;;;;;;5094509;28;20528;-82
2022/07/16 11:39:59;;;;;;;1.42;1.27;;;26.00;51.40;;;;;;5087416;28;20115;-80
2022/07/16 11:42:25;;;;;;;2.17;1.17;;;26.10;51.10;;;;;;5085564;28;20387;-82
2022/07/16 11:44:52;;;;;;;2.00;1.50;;;26.30;51.00;;;;;;5091475;28;20012;-81
2022/07/16 11:47:17;;;;;;;3.17;1.35;;;26.50;50.60;;;;;;5080934;28;20542;-79
2022/07/16 11:49:44;;;;;;;3.95;1.35;;;26.50;49.80;;;;;;5099465;28;20083;-78
2022/07/16 11:52:14;;;;;;;3.22;1.23;;;26.40;50.60;;;;;;5093855;28;20103;-80
2022/07/16 11:54:41;;;;;;;3.95;1.40;;;26.50;50.30;;;;;;5094667;28;20032;-77
2022/07/16 11:57:09;;;;;;;6.70;1.13;;;26.50;49.90;;;;;;5096265;28;20048;-80
2022/07/16 11:59:40;;;;;;;2.53;1.40;;;26.60;50.40;;;;;;5092570;28;20031;-79
2022/07/16 12:02:13;;;;;;;2.60;1.10;;;26.70;49.80;;;;;;5079561;28;20379;-82
2022/07/16 12:04:50;;;;;;;2.53;1.08;;;26.70;50.60;;;;;;5073373;28;20186;-78
2022/07/16 12:07:25;;;;;;;3.30;1.42;;;26.90;50.70;;;;;;5075839;28;20055;-80
2022/07/16 12:09:53;;;;;;;3.05;1.50;;;26.70;49.30;;;;;;5087137;28;20028;-84
2022/07/16 12:12:24;;;;;;;2.30;1.40;;;26.70;49.70;;;;;;5091436;28;20017;-82
2022/07/16 12:14:57;;;;;;;1.83;1.40;;;26.80;50.00;;;;;;5077660;28;20039;-83
2022/07/16 12:17:24;;;;;;;2.22;1.20;;;27.00;49.60;;;;;;5084254;28;20435;-82
2022/07/16 12:20:12;;;;;;;1.63;1.40;;;27.20;49.30;;;;;;5086918;28;20417;-81
2022/07/16 12:22:59;;;;;;;4.68;1.40;;;27.40;49.80;;;;;;5083881;28;20020;-74
2022/07/16 12:25:28;;;;;;;1.77;1.33;;;27.10;49.70;;;;;;5088401;28;20042;-85
2022/07/16 12:28:02;;;;;;;3.00;1.80;;;27.10;49.60;;;;;;5085970;28;20029;-76
2022/07/16 12:30:39;;;;;;;1.90;1.40;;;27.20;50.40;;;;;;5093734;28;20346;-71
2022/07/16 12:33:07;;;;;;;5.78;1.30;;;27.30;50.00;;;;;;5090960;28;20396;-72
2022/07/16 12:35:45;;;;;;;4.95;1.63;;;27.20;49.80;;;;;;5089226;28;20028;-73
2022/07/16 12:38:48;;;;;;;2.78;1.45;;;27.30;49.90;;;;;;5080267;28;20381;-72
2022/07/16 12:41:17;;;;;;;9.82;5.15;;;27.20;50.00;;;;;;5086180;28;20023;-72
2022/07/16 12:43:44;;;;;;;2.40;1.27;;;27.30;50.80;;;;;;5087578;28;20020;-72
2022/07/16 12:46:11;;;;;;;3.17;1.52;;;27.40;50.50;;;;;;5097270;28;20428;-72
2022/07/16 12:48:45;;;;;;;5.63;1.70;;;27.50;50.00;;;;;;5080151;28;20024;-72
2022/07/16 12:51:16;;;;;;;6.50;3.47;;;27.70;49.50;;;;;;5086974;28;20377;-72
2022/07/16 12:53:43;;;;;;;4.80;1.20;;;27.80;49.60;;;;;;5089368;28;20455;-73
2022/07/16 12:58:53;;;;;;;4.68;1.05;;;27.90;50.50;;;;;;5097659;28;20052;-72
2022/07/16 13:01:20;;;;;;;3.33;1.40;;;28.00;50.30;;;;;;5087878;28;20091;-72
2022/07/16 13:03:47;;;;;;;1.40;1.30;;;28.00;49.40;;;;;;5086360;28;20029;-72
2022/07/16 13:06:13;;;;;;;2.30;1.40;;;28.00;49.30;;;;;;5061968;28;20027;-73